createdAt,value
2023-12-13T00:00:17.091Z,12.47
2023-12-13T00:02:48.892Z,12.21
2023-12-13T00:05:20.499Z,12.20
2023-12-13T00:07:52.229Z,12.28
2023-12-13T00:10:24.059Z,12.18
2023-12-13T00:12:55.618Z,12.01
2023-12-13T00:15:27.182Z,11.97
2023-12-13T00:17:59.238Z,11.58
2023-12-13T00:20:30.991Z,11.60
2023-12-13T00:23:03.260Z,11.77
2023-12-13T00:25:38.496Z,11.75
2023-12-13T00:28:10.539Z,11.89
2023-12-13T00:30:43.064Z,11.82
2023-12-13T00:33:15.324Z,11.90
2023-12-13T00:35:48.724Z,11.88
2023-12-13T00:38:20.765Z,11.66
2023-12-13T00:40:52.583Z,11.97
2023-12-13T00:43:24.341Z,12.11
2023-12-13T00:45:55.927Z,11.92
2023-12-13T00:48:27.649Z,12.44
2023-12-13T00:50:59.667Z,12.30
2023-12-13T00:53:31.315Z,12.38
2023-12-13T00:56:03.354Z,12.48
2023-12-13T00:58:35.046Z,12.45
2023-12-13T01:01:07.584Z,12.48
2023-12-13T01:03:39.733Z,12.82
2023-12-13T01:06:11.714Z,13.00
2023-12-13T01:08:43.310Z,13.12
2023-12-13T01:11:14.900Z,12.91
2023-12-13T01:13:48.003Z,13.14
2023-12-13T01:16:19.768Z,13.15
2023-12-13T01:18:51.635Z,13.24
2023-12-13T01:21:24.265Z,13.25
2023-12-13T01:23:56.301Z,13.45
2023-12-13T01:26:27.883Z,13.37
2023-12-13T01:28:59.667Z,13.28
2023-12-13T01:31:31.330Z,13.37
2023-12-13T01:34:03.931Z,13.16
2023-12-13T01:36:42.736Z,13.14
2023-12-13T01:39:16.499Z,13.21
2023-12-13T01:41:48.085Z,13.21
2023-12-13T01:44:19.845Z,13.21
2023-12-13T01:46:52.030Z,13.24
2023-12-13T01:49:24.108Z,13.26
2023-12-13T01:51:57.072Z,12.94
2023-12-13T01:54:31.248Z,13.04
2023-12-13T01:57:05.262Z,13.13
2023-12-13T01:59:38.461Z,12.98
2023-12-13T02:02:11.328Z,12.92
2023-12-13T02:04:44.252Z,12.85
2023-12-13T02:07:16.548Z,12.81
2023-12-13T02:09:48.176Z,12.70
2023-12-13T02:12:20.263Z,12.82
2023-12-13T02:14:51.976Z,12.97
2023-12-13T02:17:23.817Z,12.71
2023-12-13T02:19:55.473Z,12.75
2023-12-13T02:22:27.141Z,12.70
2023-12-13T02:25:02.444Z,12.77
2023-12-13T02:27:34.496Z,12.34
2023-12-13T02:30:08.692Z,12.84
2023-12-13T02:32:40.942Z,13.02
2023-12-13T02:35:12.585Z,13.10
2023-12-13T02:37:50.238Z,12.96
2023-12-13T02:40:23.207Z,13.09
2023-12-13T02:42:55.300Z,12.99
2023-12-13T02:45:27.016Z,13.21
2023-12-13T02:48:01.270Z,13.26
2023-12-13T02:50:33.174Z,13.13
2023-12-13T02:53:05.288Z,12.88
2023-12-13T02:55:36.972Z,13.22
2023-12-13T02:58:08.600Z,13.07
2023-12-13T03:00:40.313Z,12.88
2023-12-13T03:03:12.067Z,12.94
2023-12-13T03:05:43.813Z,13.18
2023-12-13T03:08:17.442Z,12.94
2023-12-13T03:10:49.095Z,12.33
2023-12-13T03:13:20.836Z,12.73
2023-12-13T03:15:52.495Z,12.54
2023-12-13T03:18:24.155Z,12.02
2023-12-13T03:20:55.882Z,11.46
2023-12-13T03:23:27.558Z,12.26
2023-12-13T03:25:59.202Z,11.88
2023-12-13T03:28:30.928Z,11.58
2023-12-13T03:31:09.670Z,12.52
2023-12-13T03:33:41.349Z,12.56
2023-12-13T03:36:17.521Z,12.07
2023-12-13T03:38:49.222Z,12.43
2023-12-13T03:41:20.975Z,11.41
2023-12-13T03:43:52.558Z,11.11
2023-12-13T03:46:25.180Z,12.35
2023-12-13T03:48:56.941Z,12.20
2023-12-13T03:51:28.817Z,12.06
2023-12-13T03:54:00.403Z,12.16
2023-12-13T03:56:32.066Z,11.57
2023-12-13T03:59:03.720Z,12.37
2023-12-13T04:01:35.749Z,12.10
2023-12-13T04:04:07.519Z,12.39
2023-12-13T04:06:39.340Z,11.95
2023-12-13T04:09:11.124Z,11.77
2023-12-13T04:11:42.732Z,12.65
2023-12-13T04:14:14.389Z,12.81
2023-12-13T04:16:46.013Z,12.52
2023-12-13T04:19:17.676Z,12.03
2023-12-13T04:21:49.269Z,12.15
2023-12-13T04:24:20.878Z,12.30
2023-12-13T04:26:52.585Z,12.34
2023-12-13T04:29:24.179Z,12.44
2023-12-13T04:31:55.853Z,12.49
2023-12-13T04:34:27.565Z,12.70
2023-12-13T04:36:59.819Z,12.84
2023-12-13T04:39:31.403Z,12.76
2023-12-13T04:42:04.325Z,12.70
2023-12-13T04:44:35.919Z,12.52
2023-12-13T04:47:07.641Z,12.29
2023-12-13T04:49:39.810Z,12.11
2023-12-13T04:52:12.202Z,11.95
2023-12-13T04:54:43.843Z,11.39
2023-12-13T04:57:15.518Z,11.96
2023-12-13T04:59:47.161Z,12.04
2023-12-13T05:02:18.756Z,11.30
2023-12-13T05:04:50.726Z,11.40
2023-12-13T05:07:22.499Z,11.89
2023-12-13T05:09:55.678Z,11.95
2023-12-13T05:12:27.213Z,11.83
2023-12-13T05:14:58.923Z,12.07
2023-12-13T05:17:31.705Z,12.13
2023-12-13T05:20:05.320Z,11.85
2023-12-13T05:22:37.081Z,12.00
2023-12-13T05:25:09.425Z,11.68
2023-12-13T05:27:43.720Z,11.32
2023-12-13T05:30:16.240Z,11.39
2023-12-13T05:32:47.936Z,11.55
2023-12-13T05:35:19.746Z,11.56
2023-12-13T05:37:52.795Z,11.45
2023-12-13T05:40:24.722Z,11.34
2023-12-13T05:42:56.371Z,11.22
2023-12-13T05:45:28.414Z,10.64
2023-12-13T05:48:00.136Z,11.12
2023-12-13T05:50:32.042Z,11.26
2023-12-13T05:53:03.719Z,11.78
2023-12-13T05:55:35.407Z,11.81
2023-12-13T05:58:07.063Z,11.45
2023-12-13T06:00:38.734Z,11.79
2023-12-13T06:03:10.707Z,11.91
2023-12-13T06:05:42.438Z,12.08
2023-12-13T06:08:14.213Z,11.99
2023-12-13T06:10:45.831Z,12.07
2023-12-13T06:13:18.938Z,12.08
2023-12-13T06:15:50.746Z,11.85
2023-12-13T06:18:22.359Z,12.01
2023-12-13T06:20:53.989Z,12.23
2023-12-13T06:23:25.629Z,12.57
2023-12-13T06:25:57.316Z,12.39
2023-12-13T06:28:28.982Z,12.05
2023-12-13T06:31:00.698Z,12.38
2023-12-13T06:33:32.429Z,12.12
2023-12-13T06:36:04.496Z,12.29
2023-12-13T06:38:36.134Z,12.52
2023-12-13T06:41:07.743Z,12.88
2023-12-13T06:43:39.419Z,12.63
2023-12-13T06:46:11.078Z,12.15
2023-12-13T06:48:42.807Z,12.14
2023-12-13T06:51:14.476Z,12.27
2023-12-13T06:53:47.715Z,11.97
2023-12-13T06:56:19.616Z,11.87
2023-12-13T06:58:51.356Z,11.88
2023-12-13T07:01:23.536Z,12.07
2023-12-13T07:03:56.183Z,12.02
2023-12-13T07:06:28.106Z,12.06
2023-12-13T07:09:00.325Z,12.01
2023-12-13T07:11:31.930Z,11.69
2023-12-13T07:14:03.546Z,11.71
2023-12-13T07:16:35.460Z,11.87
2023-12-13T07:19:07.121Z,11.01
2023-12-13T07:21:38.777Z,11.88
2023-12-13T07:24:10.378Z,11.45
2023-12-13T07:26:42.468Z,12.17
2023-12-13T07:29:14.831Z,11.68
2023-12-13T07:31:46.688Z,12.04
2023-12-13T07:34:19.557Z,12.16
2023-12-13T07:36:52.382Z,12.17
2023-12-13T07:39:25.835Z,12.65
2023-12-13T07:41:58.712Z,12.84
2023-12-13T07:44:34.275Z,12.93
2023-12-13T07:47:06.117Z,12.54
2023-12-13T07:49:38.460Z,12.13
2023-12-13T07:52:10.408Z,12.09
2023-12-13T07:54:43.576Z,11.94
2023-12-13T07:57:15.314Z,11.72
2023-12-13T07:59:47.345Z,11.91
2023-12-13T08:02:22.425Z,11.88
2023-12-13T08:04:57.674Z,11.94
2023-12-13T08:07:29.714Z,11.81
2023-12-13T08:10:02.106Z,11.69
2023-12-13T08:12:35.666Z,11.95
2023-12-13T08:15:07.939Z,12.29
2023-12-13T08:17:40.022Z,12.31
2023-12-13T08:20:12.899Z,12.75
2023-12-13T08:22:44.793Z,13.11
2023-12-13T08:25:16.742Z,13.47
2023-12-13T08:27:48.429Z,13.36
2023-12-13T08:30:21.619Z,13.49
2023-12-13T08:32:53.690Z,14.07
2023-12-13T08:35:25.568Z,14.29
2023-12-13T08:37:57.840Z,14.42
2023-12-13T08:40:30.652Z,14.33
2023-12-13T08:43:02.314Z,14.15
2023-12-13T08:45:33.925Z,14.20
2023-12-13T08:48:05.970Z,14.25
2023-12-13T08:50:37.682Z,14.40
2023-12-13T08:53:09.363Z,14.32
2023-12-13T08:55:41.036Z,14.45
2023-12-13T08:58:14.431Z,14.43
2023-12-13T09:00:46.061Z,14.12
2023-12-13T09:03:20.804Z,13.81
2023-12-13T09:05:53.137Z,13.93
2023-12-13T09:08:24.857Z,13.89
2023-12-13T09:10:56.720Z,13.74
2023-12-13T09:13:28.617Z,13.81
2023-12-13T09:16:00.195Z,14.03
2023-12-13T09:18:32.855Z,14.32
2023-12-13T09:21:05.030Z,14.38
2023-12-13T09:23:37.451Z,14.33
2023-12-13T09:26:11.371Z,14.10
2023-12-13T09:28:43.101Z,13.87
2023-12-13T09:31:15.637Z,13.43
2023-12-13T09:33:47.326Z,12.62
2023-12-13T09:36:20.805Z,13.49
2023-12-13T09:38:52.523Z,13.58
2023-12-13T09:41:54.041Z,13.66
2023-12-13T09:44:30.139Z,13.45
2023-12-13T09:47:04.160Z,13.44
2023-12-13T09:49:39.291Z,13.20
2023-12-13T09:52:12.382Z,13.81
2023-12-13T09:54:46.500Z,14.11
2023-12-13T09:57:18.693Z,13.70
2023-12-13T09:59:50.475Z,13.68
2023-12-13T10:02:22.108Z,13.52
2023-12-13T10:04:54.222Z,13.12
2023-12-13T10:07:29.222Z,13.87
2023-12-13T10:10:01.466Z,13.80
2023-12-13T10:12:35.130Z,14.23
2023-12-13T10:15:12.710Z,14.20
2023-12-13T10:17:44.909Z,14.30
2023-12-13T10:20:17.388Z,14.94
2023-12-13T10:22:50.558Z,14.59
2023-12-13T10:25:24.180Z,14.04
2023-12-13T10:27:56.034Z,13.95
2023-12-13T10:30:28.036Z,13.08
2023-12-13T10:33:01.098Z,13.34
2023-12-13T10:35:32.835Z,13.47
2023-12-13T10:38:07.926Z,13.42
2023-12-13T10:40:48.511Z,13.18
2023-12-13T10:43:22.530Z,13.08
2023-12-13T10:46:02.406Z,13.79
2023-12-13T10:48:38.453Z,13.66
2023-12-13T10:51:11.464Z,13.80
2023-12-13T10:53:45.970Z,13.67
2023-12-13T10:56:17.849Z,13.50
2023-12-13T10:58:49.864Z,13.49
2023-12-13T11:01:22.493Z,13.47
2023-12-13T11:04:10.003Z,13.05
2023-12-13T11:06:47.203Z,13.37
2023-12-13T11:09:20.220Z,13.91
2023-12-13T11:11:52.456Z,13.77
2023-12-13T11:14:27.874Z,14.11
2023-12-13T11:16:59.876Z,13.58
2023-12-13T11:19:31.969Z,13.18
2023-12-13T11:22:07.643Z,13.17
2023-12-13T11:24:42.426Z,12.84
2023-12-13T11:27:15.411Z,13.02
2023-12-13T11:29:47.557Z,13.18
2023-12-13T11:32:19.405Z,13.92
2023-12-13T11:34:51.493Z,13.83
2023-12-13T11:37:23.591Z,13.96
2023-12-13T11:39:57.341Z,13.67
2023-12-13T11:42:28.961Z,13.70
2023-12-13T11:45:00.864Z,14.19
2023-12-13T11:47:32.786Z,14.21
2023-12-13T11:50:05.579Z,14.63
2023-12-13T11:52:37.490Z,14.77
2023-12-13T11:55:12.272Z,14.92
2023-12-13T11:57:45.324Z,14.90
2023-12-13T12:00:21.257Z,15.32
2023-12-13T12:02:55.644Z,14.85
2023-12-13T12:05:29.103Z,14.33
2023-12-13T12:08:05.297Z,14.48
2023-12-13T12:10:37.054Z,14.38
2023-12-13T12:13:08.892Z,14.17
2023-12-13T12:15:43.920Z,13.40
2023-12-13T12:18:15.634Z,13.66
2023-12-13T12:20:47.499Z,13.34
2023-12-13T12:23:19.679Z,12.99
2023-12-13T12:25:54.618Z,12.80
2023-12-13T12:28:28.575Z,12.38
2023-12-13T12:31:03.751Z,12.14
2023-12-13T12:33:39.350Z,11.30
2023-12-13T12:36:12.691Z,12.08
2023-12-13T12:38:47.854Z,11.63
2023-12-13T12:41:20.253Z,11.73
2023-12-13T12:43:52.107Z,11.61
2023-12-13T12:46:23.882Z,11.66
2023-12-13T12:48:55.825Z,12.02
2023-12-13T12:51:27.572Z,12.12
2023-12-13T12:53:59.261Z,11.63
2023-12-13T12:56:30.976Z,12.05
2023-12-13T12:59:02.584Z,11.62
2023-12-13T13:01:34.736Z,12.29
2023-12-13T13:04:07.036Z,12.18
2023-12-13T13:06:38.985Z,12.53
2023-12-13T13:09:10.843Z,12.88
2023-12-13T13:11:43.892Z,11.95
2023-12-13T13:14:15.597Z,12.33
2023-12-13T13:16:47.288Z,12.57
2023-12-13T13:19:19.002Z,11.34
2023-12-13T13:21:50.961Z,12.02
2023-12-13T13:24:23.780Z,13.27
2023-12-13T13:26:55.403Z,12.87
2023-12-13T13:29:27.222Z,12.45
2023-12-13T13:31:59.267Z,13.32
2023-12-13T13:34:30.972Z,13.72
2023-12-13T13:37:02.566Z,13.62
2023-12-13T13:39:34.168Z,13.72
2023-12-13T13:42:08.615Z,13.53
2023-12-13T13:44:41.922Z,13.91
2023-12-13T13:47:14.359Z,13.95
2023-12-13T13:49:46.225Z,13.77
2023-12-13T13:52:18.501Z,13.48
2023-12-13T13:54:50.366Z,13.61
2023-12-13T13:57:21.962Z,13.00
2023-12-13T13:59:53.626Z,12.70
2023-12-13T14:02:35.028Z,12.91
2023-12-13T14:05:07.440Z,13.36
2023-12-13T14:07:40.328Z,12.96
2023-12-13T14:10:11.979Z,13.51
2023-12-13T14:12:43.546Z,13.53
2023-12-13T14:15:15.305Z,13.02
2023-12-13T14:17:47.241Z,13.22
2023-12-13T14:20:19.018Z,13.54
2023-12-13T14:22:50.801Z,13.74
2023-12-13T14:25:22.599Z,13.90
2023-12-13T14:27:54.252Z,13.75
2023-12-13T14:30:26.448Z,13.78
2023-12-13T14:32:58.776Z,13.53
2023-12-13T14:35:31.342Z,13.31
2023-12-13T14:38:03.058Z,13.21
2023-12-13T14:40:34.781Z,13.42
2023-12-13T14:43:08.949Z,13.32
2023-12-13T14:45:40.967Z,13.25
2023-12-13T14:48:12.749Z,13.21
2023-12-13T14:50:44.940Z,13.21
2023-12-13T14:53:16.625Z,12.71
2023-12-13T14:55:48.253Z,12.70
2023-12-13T14:58:19.954Z,11.83
2023-12-13T15:00:51.550Z,11.22
2023-12-13T15:03:23.549Z,12.01
2023-12-13T15:05:55.305Z,11.99
2023-12-13T15:08:26.996Z,11.98
2023-12-13T15:10:58.612Z,12.55
2023-12-13T15:13:30.860Z,12.41
2023-12-13T15:16:02.869Z,12.34
2023-12-13T15:18:34.726Z,12.52
2023-12-13T15:21:06.622Z,12.82
2023-12-13T15:23:38.207Z,12.96
2023-12-13T15:26:10.714Z,12.49
2023-12-13T15:28:43.667Z,12.72
2023-12-13T15:31:15.375Z,12.67
2023-12-13T15:33:47.539Z,12.76
2023-12-13T15:36:19.687Z,12.47
2023-12-13T15:38:51.415Z,11.79
2023-12-13T15:41:23.035Z,11.76
2023-12-13T15:43:54.837Z,11.61
2023-12-13T15:46:26.865Z,12.44
2023-12-13T15:48:58.878Z,10.58
2023-12-13T15:51:31.647Z,11.53
2023-12-13T15:54:03.500Z,11.13
2023-12-13T15:56:35.596Z,10.60
2023-12-13T15:59:07.223Z,10.37
2023-12-13T16:01:38.886Z,10.30
2023-12-13T16:04:11.489Z,10.02
2023-12-13T16:06:43.910Z,10.13
2023-12-13T16:09:16.428Z,9.76
2023-12-13T16:11:48.006Z,9.91
2023-12-13T16:14:20.534Z,9.85
2023-12-13T16:16:53.864Z,9.56
2023-12-13T16:19:25.817Z,9.53
2023-12-13T16:21:57.547Z,9.43
2023-12-13T16:24:29.163Z,9.82
2023-12-13T16:27:00.867Z,9.18
2023-12-13T16:29:32.545Z,9.46
2023-12-13T16:32:04.542Z,9.99
2023-12-13T16:34:36.183Z,9.46
2023-12-13T16:37:08.719Z,9.72
2023-12-13T16:39:40.341Z,9.29
2023-12-13T16:42:12.028Z,9.92
2023-12-13T16:44:43.610Z,9.82
2023-12-13T16:47:15.270Z,9.34
2023-12-13T16:49:49.768Z,10.09
2023-12-13T16:52:21.525Z,9.06
2023-12-13T16:54:53.153Z,9.96
2023-12-13T16:57:24.776Z,9.57
2023-12-13T16:59:56.763Z,9.39
2023-12-13T17:02:43.040Z,9.51
2023-12-13T17:05:17.333Z,9.04
2023-12-13T17:07:48.931Z,9.59
2023-12-13T17:10:20.797Z,9.59
2023-12-13T17:12:52.825Z,9.56
2023-12-13T17:15:24.466Z,9.99
2023-12-13T17:17:56.487Z,10.01
2023-12-13T17:20:28.301Z,9.65
2023-12-13T17:22:59.956Z,10.50
2023-12-13T17:25:31.632Z,10.13
2023-12-13T17:28:04.049Z,10.08
2023-12-13T17:30:37.434Z,10.15
2023-12-13T17:33:09.787Z,9.70
2023-12-13T17:35:43.595Z,9.67
2023-12-13T17:38:26.780Z,9.77
2023-12-13T17:41:04.096Z,9.41
2023-12-13T17:43:36.500Z,10.73
2023-12-13T17:46:08.224Z,10.62
2023-12-13T17:48:39.878Z,10.76
2023-12-13T17:51:11.557Z,10.33
2023-12-13T17:53:43.163Z,10.81
2023-12-13T17:56:19.579Z,10.87
2023-12-13T17:58:51.367Z,11.25
2023-12-13T18:01:23.106Z,11.29
2023-12-13T18:03:54.865Z,11.45
2023-12-13T18:06:27.078Z,11.31
2023-12-13T18:08:58.770Z,11.18
2023-12-13T18:11:30.349Z,10.96
2023-12-13T18:14:02.116Z,11.16
2023-12-13T18:16:34.039Z,10.18
2023-12-13T18:19:05.835Z,11.15
2023-12-13T18:21:37.531Z,11.09
2023-12-13T18:24:09.146Z,11.24
2023-12-13T18:26:41.304Z,11.02
2023-12-13T18:29:12.960Z,10.91
2023-12-13T18:31:45.032Z,10.79
2023-12-13T18:34:16.931Z,10.74
2023-12-13T18:36:48.783Z,10.78
2023-12-13T18:39:21.990Z,11.16
2023-12-13T18:41:53.614Z,10.12
2023-12-13T18:44:25.381Z,10.83
2023-12-13T18:46:57.417Z,10.49
2023-12-13T18:49:30.962Z,9.95
2023-12-13T18:52:02.768Z,9.75
2023-12-13T18:54:34.940Z,10.25
2023-12-13T18:57:07.112Z,10.20
2023-12-13T18:59:38.759Z,10.01
2023-12-13T19:02:10.541Z,10.10
2023-12-13T19:04:42.565Z,9.83
2023-12-13T19:07:14.358Z,9.76
2023-12-13T19:09:46.014Z,10.31
2023-12-13T19:12:17.960Z,10.23
2023-12-13T19:14:49.827Z,9.90
2023-12-13T19:17:21.847Z,10.11
2023-12-13T19:19:53.657Z,9.80
2023-12-13T19:22:25.849Z,10.01
2023-12-13T19:24:58.082Z,10.49
2023-12-13T19:27:29.805Z,10.43
2023-12-13T19:30:01.800Z,9.84
2023-12-13T19:32:33.609Z,10.36
2023-12-13T19:35:08.254Z,9.97
2023-12-13T19:37:41.306Z,9.88
2023-12-13T19:40:13.811Z,9.63
2023-12-13T19:42:46.588Z,9.61
2023-12-13T19:45:19.204Z,10.28
2023-12-13T19:47:52.823Z,9.86
2023-12-13T19:50:24.795Z,10.57
2023-12-13T19:52:57.302Z,10.25
2023-12-13T19:55:30.122Z,10.24
2023-12-13T19:58:01.887Z,10.41
2023-12-13T20:00:33.729Z,10.29
2023-12-13T20:03:05.346Z,10.56
2023-12-13T20:05:37.337Z,10.82
2023-12-13T20:08:09.224Z,10.92
2023-12-13T20:10:41.087Z,10.29
2023-12-13T20:13:12.789Z,10.14
2023-12-13T20:15:44.705Z,10.34
2023-12-13T20:18:17.322Z,10.49
2023-12-13T20:20:48.957Z,10.19
2023-12-13T20:23:21.017Z,10.37
2023-12-13T20:25:52.940Z,10.58
2023-12-13T20:28:24.559Z,10.23
2023-12-13T20:30:56.761Z,9.06
2023-12-13T20:33:28.633Z,9.44
2023-12-13T20:36:00.627Z,10.04
2023-12-13T20:38:32.350Z,9.13
2023-12-13T20:41:11.751Z,9.14
2023-12-13T20:43:43.343Z,10.20
2023-12-13T20:46:14.957Z,10.20
2023-12-13T20:48:46.545Z,10.35
2023-12-13T20:51:18.044Z,10.51
2023-12-13T20:53:50.240Z,10.33
2023-12-13T20:56:22.239Z,10.42
2023-12-13T20:58:53.966Z,9.66
2023-12-13T21:01:25.734Z,10.71
2023-12-13T21:03:57.653Z,10.64
2023-12-13T21:06:29.813Z,10.32
2023-12-13T21:09:01.653Z,10.36
2023-12-13T21:11:33.346Z,10.69
2023-12-13T21:14:06.911Z,10.82
2023-12-13T21:16:38.799Z,10.88
2023-12-13T21:19:10.774Z,10.31
2023-12-13T21:21:42.408Z,10.89
2023-12-13T21:24:17.638Z,10.57
2023-12-13T21:26:50.520Z,10.53
2023-12-13T21:29:25.091Z,10.35
2023-12-13T21:31:57.330Z,10.26
2023-12-13T21:34:29.707Z,10.64
2023-12-13T21:37:01.791Z,10.54
2023-12-13T21:39:33.388Z,11.05
2023-12-13T21:42:05.423Z,10.79
2023-12-13T21:44:37.098Z,10.67
2023-12-13T21:47:09.221Z,10.96
2023-12-13T21:49:41.037Z,11.44
2023-12-13T21:52:12.886Z,11.25
2023-12-13T21:54:44.476Z,10.85
2023-12-13T21:57:16.285Z,11.18
2023-12-13T21:59:48.812Z,11.08
2023-12-13T22:02:20.723Z,11.23
2023-12-13T22:04:52.743Z,11.06
2023-12-13T22:07:24.985Z,11.20
2023-12-13T22:09:56.604Z,10.99
2023-12-13T22:12:29.634Z,10.78
2023-12-13T22:15:01.276Z,10.80
2023-12-13T22:17:37.540Z,10.99
2023-12-13T22:20:17.086Z,11.13
2023-12-13T22:22:50.349Z,11.24
2023-12-13T22:25:26.468Z,11.06
2023-12-13T22:27:58.469Z,10.99
2023-12-13T22:30:33.488Z,11.17
2023-12-13T22:33:06.269Z,11.03
2023-12-13T22:35:38.136Z,10.92
2023-12-13T22:38:10.292Z,10.73
2023-12-13T22:40:42.587Z,10.64
2023-12-13T22:43:14.947Z,11.07
2023-12-13T22:45:47.375Z,10.75
2023-12-13T22:48:19.561Z,10.45
2023-12-13T22:50:51.484Z,10.69
2023-12-13T22:53:23.309Z,10.69
2023-12-13T22:55:54.920Z,10.61
2023-12-13T22:58:26.520Z,10.92
2023-12-13T23:00:58.148Z,10.75
2023-12-13T23:03:30.528Z,10.71
2023-12-13T23:06:02.137Z,10.54
2023-12-13T23:08:34.092Z,10.70
2023-12-13T23:11:06.497Z,10.43
2023-12-13T23:13:38.130Z,10.96
2023-12-13T23:16:09.810Z,10.78
2023-12-13T23:18:41.391Z,10.51
2023-12-13T23:21:12.993Z,10.40
2023-12-13T23:23:44.544Z,10.53
2023-12-13T23:26:16.128Z,10.89
2023-12-13T23:28:47.864Z,10.55
2023-12-13T23:31:24.826Z,11.24
2023-12-13T23:34:01.431Z,11.14
2023-12-13T23:36:34.604Z,11.09
2023-12-13T23:39:06.321Z,10.92
2023-12-13T23:41:37.880Z,11.21
2023-12-13T23:44:09.558Z,11.22
2023-12-13T23:46:41.249Z,11.39
2023-12-13T23:49:13.066Z,11.43
2023-12-13T23:51:44.637Z,11.66
2023-12-13T23:54:16.307Z,11.30
2023-12-13T23:56:47.848Z,11.53
2023-12-13T23:59:19.375Z,11.56
